sensor_id;sensor_type;location;lat;lon;timestamp;temperature;humidity
9118;DHT22;4594;50.994;7.126;2023-04-19T00:01:48;14.90;33.10
9118;DHT22;4594;50.994;7.126;2023-04-19T00:04:14;15.00;33.20
9118;DHT22;4594;50.994;7.126;2023-04-19T00:06:39;14.90;33.20
9118;DHT22;4594;50.994;7.126;2023-04-19T00:09:06;14.90;33.20
9118;DHT22;4594;50.994;7.126;2023-04-19T00:11:33;14.90;33.20
9118;DHT22;4594;50.994;7.126;2023-04-19T00:13:58;14.90;33.20
9118;DHT22;4594;50.994;7.126;2023-04-19T00:16:24;14.90;33.20
9118;DHT22;4594;50.994;7.126;2023-04-19T00:18:50;14.90;33.20
9118;DHT22;4594;50.994;7.126;2023-04-19T00:21:16;14.80;33.20
9118;DHT22;4594;50.994;7.126;2023-04-19T00:23:41;14.90;33.30
9118;DHT22;4594;50.994;7.126;2023-04-19T00:26:07;14.80;33.20
9118;DHT22;4594;50.994;7.126;2023-04-19T00:28:33;14.80;33.30
9118;DHT22;4594;50.994;7.126;2023-04-19T00:30:59;14.90;33.40
9118;DHT22;4594;50.994;7.126;2023-04-19T00:33:25;14.70;33.20
9118;DHT22;4594;50.994;7.126;2023-04-19T00:35:50;14.80;33.30
9118;DHT22;4594;50.994;7.126;2023-04-19T00:38:16;14.80;33.40
9118;DHT22;4594;50.994;7.126;2023-04-19T00:40:42;14.70;33.30
9118;DHT22;4594;50.994;7.126;2023-04-19T00:43:08;14.80;33.40
9118;DHT22;4594;50.994;7.126;2023-04-19T00:45:34;14.80;33.40
9118;DHT22;4594;50.994;7.126;2023-04-19T00:48:01;14.80;33.40
9118;DHT22;4594;50.994;7.126;2023-04-19T00:50:27;14.80;33.40
9118;DHT22;4594;50.994;7.126;2023-04-19T00:52:54;14.80;33.50
9118;DHT22;4594;50.994;7.126;2023-04-19T00:55:22;14.70;33.40
9118;DHT22;4594;50.994;7.126;2023-04-19T00:57:48;14.70;33.40
9118;DHT22;4594;50.994;7.126;2023-04-19T01:00:16;14.60;33.40
9118;DHT22;4594;50.994;7.126;2023-04-19T01:02:42;14.70;33.50
9118;DHT22;4594;50.994;7.126;2023-04-19T01:05:08;14.70;33.50
9118;DHT22;4594;50.994;7.126;2023-04-19T01:07:33;14.80;33.60
9118;DHT22;4594;50.994;7.126;2023-04-19T01:09:59;14.80;33.60
9118;DHT22;4594;50.994;7.126;2023-04-19T01:12:25;14.70;33.60
9118;DHT22;4594;50.994;7.126;2023-04-19T01:14:51;14.70;33.60
9118;DHT22;4594;50.994;7.126;2023-04-19T01:17:18;14.70;33.60
9118;DHT22;4594;50.994;7.126;2023-04-19T01:19:44;14.70;33.60
9118;DHT22;4594;50.994;7.126;2023-04-19T01:22:20;14.80;33.70
9118;DHT22;4594;50.994;7.126;2023-04-19T01:24:49;14.60;33.70
9118;DHT22;4594;50.994;7.126;2023-04-19T01:27:15;14.70;33.70
9118;DHT22;4594;50.994;7.126;2023-04-19T01:29:42;14.70;33.70
9118;DHT22;4594;50.994;7.126;2023-04-19T01:32:08;14.70;33.70
9118;DHT22;4594;50.994;7.126;2023-04-19T01:34:33;14.70;33.70
9118;DHT22;4594;50.994;7.126;2023-04-19T01:36:59;14.70;33.80
9118;DHT22;4594;50.994;7.126;2023-04-19T01:39:25;14.70;33.80
9118;DHT22;4594;50.994;7.126;2023-04-19T01:41:51;14.70;33.80
9118;DHT22;4594;50.994;7.126;2023-04-19T01:44:17;14.70;33.80
9118;DHT22;4594;50.994;7.126;2023-04-19T01:46:42;14.70;33.80
9118;DHT22;4594;50.994;7.126;2023-04-19T01:49:08;14.70;33.80
9118;DHT22;4594;50.994;7.126;2023-04-19T01:51:35;14.70;33.80
9118;DHT22;4594;50.994;7.126;2023-04-19T01:54:02;14.70;33.90
9118;DHT22;4594;50.994;7.126;2023-04-19T01:56:28;14.70;33.90
9118;DHT22;4594;50.994;7.126;2023-04-19T01:58:54;14.60;33.90
9118;DHT22;4594;50.994;7.126;2023-04-19T02:01:20;14.60;33.90
9118;DHT22;4594;50.994;7.126;2023-04-19T02:03:46;14.60;33.90
9118;DHT22;4594;50.994;7.126;2023-04-19T02:06:12;14.60;33.90
9118;DHT22;4594;50.994;7.126;2023-04-19T02:08:41;14.60;34.00
9118;DHT22;4594;50.994;7.126;2023-04-19T02:11:08;14.60;34.00
9118;DHT22;4594;50.994;7.126;2023-04-19T02:13:34;14.70;34.10
9118;DHT22;4594;50.994;7.126;2023-04-19T02:16:00;14.60;34.00
9118;DHT22;4594;50.994;7.126;2023-04-19T02:18:28;14.70;34.10
9118;DHT22;4594;50.994;7.126;2023-04-19T02:20:54;14.80;34.20
9118;DHT22;4594;50.994;7.126;2023-04-19T02:23:20;14.70;34.10
9118;DHT22;4594;50.994;7.126;2023-04-19T02:25:46;14.70;34.10
9118;DHT22;4594;50.994;7.126;2023-04-19T02:28:12;14.60;34.10
9118;DHT22;4594;50.994;7.126;2023-04-19T02:30:37;14.60;34.10
9118;DHT22;4594;50.994;7.126;2023-04-19T02:33:03;14.70;34.20
9118;DHT22;4594;50.994;7.126;2023-04-19T02:35:29;14.60;34.40
9118;DHT22;4594;50.994;7.126;2023-04-19T02:37:54;14.60;34.10
9118;DHT22;4594;50.994;7.126;2023-04-19T02:40:20;14.60;34.20
9118;DHT22;4594;50.994;7.126;2023-04-19T02:42:47;14.60;34.20
9118;DHT22;4594;50.994;7.126;2023-04-19T02:45:13;14.70;34.30
9118;DHT22;4594;50.994;7.126;2023-04-19T02:47:39;14.60;34.20
9118;DHT22;4594;50.994;7.126;2023-04-19T02:50:05;14.60;34.20
9118;DHT22;4594;50.994;7.126;2023-04-19T02:52:31;14.50;34.10
9118;DHT22;4594;50.994;7.126;2023-04-19T02:54:57;14.50;34.10
9118;DHT22;4594;50.994;7.126;2023-04-19T02:57:22;14.50;34.20
9118;DHT22;4594;50.994;7.126;2023-04-19T02:59:48;14.50;34.20
9118;DHT22;4594;50.994;7.126;2023-04-19T03:02:14;14.50;34.20
9118;DHT22;4594;50.994;7.126;2023-04-19T03:04:39;14.40;34.20
9118;DHT22;4594;50.994;7.126;2023-04-19T03:07:07;14.40;34.20
9118;DHT22;4594;50.994;7.126;2023-04-19T03:09:34;14.40;34.30
9118;DHT22;4594;50.994;7.126;2023-04-19T03:11:59;14.30;34.20
9118;DHT22;4594;50.994;7.126;2023-04-19T03:14:26;14.40;34.40
9118;DHT22;4594;50.994;7.126;2023-04-19T03:16:51;14.30;34.30
9118;DHT22;4594;50.994;7.126;2023-04-19T03:19:17;14.30;34.40
9118;DHT22;4594;50.994;7.126;2023-04-19T03:21:43;14.20;34.30
9118;DHT22;4594;50.994;7.126;2023-04-19T03:24:08;14.30;34.40
9118;DHT22;4594;50.994;7.126;2023-04-19T03:26:34;14.20;34.40
9118;DHT22;4594;50.994;7.126;2023-04-19T03:29:00;14.10;34.40
9118;DHT22;4594;50.994;7.126;2023-04-19T03:31:26;14.20;34.50
9118;DHT22;4594;50.994;7.126;2023-04-19T03:33:51;14.20;34.50
9118;DHT22;4594;50.994;7.126;2023-04-19T03:36:17;14.20;34.60
9118;DHT22;4594;50.994;7.126;2023-04-19T03:38:42;14.20;34.60
9118;DHT22;4594;50.994;7.126;2023-04-19T03:41:18;14.10;34.60
9118;DHT22;4594;50.994;7.126;2023-04-19T03:43:45;14.10;34.80
9118;DHT22;4594;50.994;7.126;2023-04-19T03:46:11;14.10;34.60
9118;DHT22;4594;50.994;7.126;2023-04-19T03:48:36;14.00;34.60
9118;DHT22;4594;50.994;7.126;2023-04-19T03:51:02;14.10;34.70
9118;DHT22;4594;50.994;7.126;2023-04-19T03:53:28;14.00;34.60
9118;DHT22;4594;50.994;7.126;2023-04-19T03:55:53;14.10;34.80
9118;DHT22;4594;50.994;7.126;2023-04-19T03:58:19;14.00;34.80
9118;DHT22;4594;50.994;7.126;2023-04-19T04:00:45;14.00;34.80
9118;DHT22;4594;50.994;7.126;2023-04-19T04:03:11;14.00;34.80
9118;DHT22;4594;50.994;7.126;2023-04-19T04:05:36;14.00;34.90
9118;DHT22;4594;50.994;7.126;2023-04-19T04:08:02;13.90;34.80
9118;DHT22;4594;50.994;7.126;2023-04-19T04:10:28;14.00;34.90
9118;DHT22;4594;50.994;7.126;2023-04-19T04:12:53;14.00;34.90
9118;DHT22;4594;50.994;7.126;2023-04-19T04:15:19;13.90;34.80
9118;DHT22;4594;50.994;7.126;2023-04-19T04:17:45;13.90;34.90
9118;DHT22;4594;50.994;7.126;2023-04-19T04:20:11;14.00;35.00
9118;DHT22;4594;50.994;7.126;2023-04-19T04:22:44;13.90;34.90
9118;DHT22;4594;50.994;7.126;2023-04-19T04:25:11;13.90;35.10
9118;DHT22;4594;50.994;7.126;2023-04-19T04:27:37;13.90;35.00
9118;DHT22;4594;50.994;7.126;2023-04-19T04:30:04;13.90;35.00
9118;DHT22;4594;50.994;7.126;2023-04-19T04:32:32;13.90;35.00
9118;DHT22;4594;50.994;7.126;2023-04-19T04:35:00;13.90;35.00
9118;DHT22;4594;50.994;7.126;2023-04-19T04:37:27;13.90;35.00
9118;DHT22;4594;50.994;7.126;2023-04-19T04:39:54;13.90;35.00
9118;DHT22;4594;50.994;7.126;2023-04-19T04:42:19;13.90;35.00
9118;DHT22;4594;50.994;7.126;2023-04-19T04:44:46;13.90;35.00
9118;DHT22;4594;50.994;7.126;2023-04-19T04:47:12;13.80;35.00
9118;DHT22;4594;50.994;7.126;2023-04-19T04:49:38;13.90;35.10
9118;DHT22;4594;50.994;7.126;2023-04-19T04:52:04;13.90;35.10
9118;DHT22;4594;50.994;7.126;2023-04-19T04:54:30;13.90;35.10
9118;DHT22;4594;50.994;7.126;2023-04-19T04:56:58;13.90;35.10
9118;DHT22;4594;50.994;7.126;2023-04-19T04:59:23;13.90;35.10
9118;DHT22;4594;50.994;7.126;2023-04-19T05:01:49;13.90;35.10
9118;DHT22;4594;50.994;7.126;2023-04-19T05:04:15;13.90;35.20
9118;DHT22;4594;50.994;7.126;2023-04-19T05:06:40;13.90;35.20
9118;DHT22;4594;50.994;7.126;2023-04-19T05:09:06;13.90;35.30
9118;DHT22;4594;50.994;7.126;2023-04-19T05:11:32;13.90;35.30
9118;DHT22;4594;50.994;7.126;2023-04-19T05:13:58;14.00;35.30
9118;DHT22;4594;50.994;7.126;2023-04-19T05:16:25;13.90;35.20
9118;DHT22;4594;50.994;7.126;2023-04-19T05:18:51;14.00;35.30
9118;DHT22;4594;50.994;7.126;2023-04-19T05:21:17;14.00;35.20
9118;DHT22;4594;50.994;7.126;2023-04-19T05:23:43;14.10;35.30
9118;DHT22;4594;50.994;7.126;2023-04-19T05:26:08;14.10;35.30
9118;DHT22;4594;50.994;7.126;2023-04-19T05:28:40;14.10;35.30
9118;DHT22;4594;50.994;7.126;2023-04-19T05:31:08;14.20;35.30
9118;DHT22;4594;50.994;7.126;2023-04-19T05:33:34;14.20;35.30
9118;DHT22;4594;50.994;7.126;2023-04-19T05:35:59;14.20;35.20
9118;DHT22;4594;50.994;7.126;2023-04-19T05:38:25;14.20;35.10
9118;DHT22;4594;50.994;7.126;2023-04-19T05:40:51;14.20;35.10
9118;DHT22;4594;50.994;7.126;2023-04-19T05:43:16;14.20;35.10
9118;DHT22;4594;50.994;7.126;2023-04-19T05:45:42;14.20;35.10
9118;DHT22;4594;50.994;7.126;2023-04-19T05:48:08;14.10;35.00
9118;DHT22;4594;50.994;7.126;2023-04-19T05:50:34;14.10;35.10
9118;DHT22;4594;50.994;7.126;2023-04-19T05:53:01;14.10;35.00
9118;DHT22;4594;50.994;7.126;2023-04-19T05:55:27;14.10;35.10
9118;DHT22;4594;50.994;7.126;2023-04-19T05:57:53;14.20;35.10
9118;DHT22;4594;50.994;7.126;2023-04-19T06:00:19;14.10;35.00
9118;DHT22;4594;50.994;7.126;2023-04-19T06:02:45;14.10;35.00
9118;DHT22;4594;50.994;7.126;2023-04-19T06:05:11;14.10;35.00
9118;DHT22;4594;50.994;7.126;2023-04-19T06:07:36;14.10;34.90
9118;DHT22;4594;50.994;7.126;2023-04-19T06:10:02;14.10;34.90
9118;DHT22;4594;50.994;7.126;2023-04-19T06:12:28;14.10;34.90
9118;DHT22;4594;50.994;7.126;2023-04-19T06:14:54;14.10;34.90
9118;DHT22;4594;50.994;7.126;2023-04-19T06:17:20;14.10;34.90
9118;DHT22;4594;50.994;7.126;2023-04-19T06:19:49;14.10;34.90
9118;DHT22;4594;50.994;7.126;2023-04-19T06:22:19;14.10;34.90
9118;DHT22;4594;50.994;7.126;2023-04-19T06:24:46;14.10;34.90
9118;DHT22;4594;50.994;7.126;2023-04-19T06:27:13;14.10;34.90
9118;DHT22;4594;50.994;7.126;2023-04-19T06:29:40;14.10;34.90
9118;DHT22;4594;50.994;7.126;2023-04-19T06:32:06;14.00;34.80
9118;DHT22;4594;50.994;7.126;2023-04-19T06:34:32;14.10;34.90
9118;DHT22;4594;50.994;7.126;2023-04-19T06:36:57;14.10;34.80
9118;DHT22;4594;50.994;7.126;2023-04-19T06:39:23;14.20;34.90
9118;DHT22;4594;50.994;7.126;2023-04-19T06:41:49;14.20;34.90
9118;DHT22;4594;50.994;7.126;2023-04-19T06:44:15;14.30;35.00
9118;DHT22;4594;50.994;7.126;2023-04-19T06:46:40;14.40;35.30
9118;DHT22;4594;50.994;7.126;2023-04-19T06:49:07;14.50;35.40
9118;DHT22;4594;50.994;7.126;2023-04-19T06:51:33;14.70;35.60
9118;DHT22;4594;50.994;7.126;2023-04-19T06:53:58;15.00;36.00
9118;DHT22;4594;50.994;7.126;2023-04-19T06:56:44;15.30;36.50
9118;DHT22;4594;50.994;7.126;2023-04-19T06:59:12;15.80;36.60
9118;DHT22;4594;50.994;7.126;2023-04-19T07:01:41;16.40;37.40
9118;DHT22;4594;50.994;7.126;2023-04-19T07:04:07;17.00;37.30
9118;DHT22;4594;50.994;7.126;2023-04-19T07:06:36;17.50;37.60
9118;DHT22;4594;50.994;7.126;2023-04-19T07:09:04;18.10;37.40
9118;DHT22;4594;50.994;7.126;2023-04-19T07:11:31;18.60;37.60
9118;DHT22;4594;50.994;7.126;2023-04-19T07:13:57;19.10;37.30
9118;DHT22;4594;50.994;7.126;2023-04-19T07:16:25;19.40;36.80
9118;DHT22;4594;50.994;7.126;2023-04-19T07:18:51;19.70;36.50
9118;DHT22;4594;50.994;7.126;2023-04-19T07:21:17;19.90;36.00
9118;DHT22;4594;50.994;7.126;2023-04-19T07:23:43;20.10;35.80
9118;DHT22;4594;50.994;7.126;2023-04-19T07:26:09;20.00;35.00
9118;DHT22;4594;50.994;7.126;2023-04-19T07:28:35;19.90;34.80
9118;DHT22;4594;50.994;7.126;2023-04-19T07:31:00;19.80;34.30
9118;DHT22;4594;50.994;7.126;2023-04-19T07:33:26;19.70;34.10
9118;DHT22;4594;50.994;7.126;2023-04-19T07:35:53;19.50;34.00
9118;DHT22;4594;50.994;7.126;2023-04-19T07:38:19;19.40;34.00
9118;DHT22;4594;50.994;7.126;2023-04-19T07:40:44;19.30;33.90
9118;DHT22;4594;50.994;7.126;2023-04-19T07:43:10;19.20;33.90
9118;DHT22;4594;50.994;7.126;2023-04-19T07:45:36;19.20;34.20
9118;DHT22;4594;50.994;7.126;2023-04-19T07:48:02;19.30;34.70
9118;DHT22;4594;50.994;7.126;2023-04-19T07:50:28;19.60;35.10
9118;DHT22;4594;50.994;7.126;2023-04-19T07:52:54;20.00;35.50
9118;DHT22;4594;50.994;7.126;2023-04-19T07:55:21;20.50;35.90
9118;DHT22;4594;50.994;7.126;2023-04-19T07:57:48;21.00;35.50
9118;DHT22;4594;50.994;7.126;2023-04-19T08:00:14;21.50;35.50
9118;DHT22;4594;50.994;7.126;2023-04-19T08:02:45;21.90;36.00
9118;DHT22;4594;50.994;7.126;2023-04-19T08:05:12;22.50;35.70
9118;DHT22;4594;50.994;7.126;2023-04-19T08:07:39;23.00;36.00
9118;DHT22;4594;50.994;7.126;2023-04-19T08:10:07;23.50;36.30
9118;DHT22;4594;50.994;7.126;2023-04-19T08:12:34;24.00;35.50
9118;DHT22;4594;50.994;7.126;2023-04-19T08:15:02;24.50;35.90
9118;DHT22;4594;50.994;7.126;2023-04-19T08:17:28;24.90;35.90
9118;DHT22;4594;50.994;7.126;2023-04-19T08:19:54;25.30;35.20
9118;DHT22;4594;50.994;7.126;2023-04-19T08:22:20;25.70;35.20
9118;DHT22;4594;50.994;7.126;2023-04-19T08:24:48;26.00;35.10
9118;DHT22;4594;50.994;7.126;2023-04-19T08:27:15;26.30;35.00
9118;DHT22;4594;50.994;7.126;2023-04-19T08:29:41;26.60;34.50
9118;DHT22;4594;50.994;7.126;2023-04-19T08:32:07;26.90;34.30
9118;DHT22;4594;50.994;7.126;2023-04-19T08:34:34;27.10;33.60
9118;DHT22;4594;50.994;7.126;2023-04-19T08:37:01;27.30;33.30
9118;DHT22;4594;50.994;7.126;2023-04-19T08:39:29;27.40;32.90
9118;DHT22;4594;50.994;7.126;2023-04-19T08:41:56;27.50;33.20
9118;DHT22;4594;50.994;7.126;2023-04-19T08:44:30;27.70;33.30
9118;DHT22;4594;50.994;7.126;2023-04-19T08:46:58;27.80;33.20
9118;DHT22;4594;50.994;7.126;2023-04-19T08:49:27;28.00;32.70
9118;DHT22;4594;50.994;7.126;2023-04-19T08:51:54;28.20;32.20
9118;DHT22;4594;50.994;7.126;2023-04-19T08:54:22;28.30;32.30
9118;DHT22;4594;50.994;7.126;2023-04-19T08:56:48;28.40;32.30
9118;DHT22;4594;50.994;7.126;2023-04-19T08:59:14;28.50;32.10
9118;DHT22;4594;50.994;7.126;2023-04-19T09:01:40;28.60;32.20
9118;DHT22;4594;50.994;7.126;2023-04-19T09:04:06;28.80;31.90
9118;DHT22;4594;50.994;7.126;2023-04-19T09:06:39;28.90;32.00
9118;DHT22;4594;50.994;7.126;2023-04-19T09:09:23;29.10;31.30
9118;DHT22;4594;50.994;7.126;2023-04-19T09:11:50;29.20;31.30
9118;DHT22;4594;50.994;7.126;2023-04-19T09:14:18;29.30;31.20
9118;DHT22;4594;50.994;7.126;2023-04-19T09:16:45;29.30;31.20
9118;DHT22;4594;50.994;7.126;2023-04-19T09:19:11;29.40;31.10
9118;DHT22;4594;50.994;7.126;2023-04-19T09:21:38;29.40;31.10
9118;DHT22;4594;50.994;7.126;2023-04-19T09:24:05;29.50;30.70
9118;DHT22;4594;50.994;7.126;2023-04-19T09:26:32;29.50;30.20
9118;DHT22;4594;50.994;7.126;2023-04-19T09:29:02;29.50;30.10
9118;DHT22;4594;50.994;7.126;2023-04-19T09:31:34;29.40;30.10
9118;DHT22;4594;50.994;7.126;2023-04-19T09:34:15;29.40;30.20
9118;DHT22;4594;50.994;7.126;2023-04-19T09:36:42;29.40;30.00
9118;DHT22;4594;50.994;7.126;2023-04-19T09:39:08;29.50;29.90
9118;DHT22;4594;50.994;7.126;2023-04-19T09:41:52;29.40;29.70
9118;DHT22;4594;50.994;7.126;2023-04-19T09:44:19;29.40;29.40
9118;DHT22;4594;50.994;7.126;2023-04-19T09:46:45;29.40;29.70
9118;DHT22;4594;50.994;7.126;2023-04-19T09:51:45;29.50;29.50
9118;DHT22;4594;50.994;7.126;2023-04-19T09:54:13;29.60;29.30
9118;DHT22;4594;50.994;7.126;2023-04-19T09:56:40;29.70;29.60
9118;DHT22;4594;50.994;7.126;2023-04-19T09:59:08;29.70;29.60
9118;DHT22;4594;50.994;7.126;2023-04-19T10:01:39;29.70;29.30
9118;DHT22;4594;50.994;7.126;2023-04-19T10:04:12;29.70;28.90
9118;DHT22;4594;50.994;7.126;2023-04-19T10:06:50;29.60;29.00
9118;DHT22;4594;50.994;7.126;2023-04-19T10:09:18;29.60;29.30
9118;DHT22;4594;50.994;7.126;2023-04-19T10:11:52;29.70;28.90
9118;DHT22;4594;50.994;7.126;2023-04-19T10:14:22;29.70;28.80
9118;DHT22;4594;50.994;7.126;2023-04-19T10:16:49;29.70;28.50
9118;DHT22;4594;50.994;7.126;2023-04-19T10:19:18;29.70;28.90
9118;DHT22;4594;50.994;7.126;2023-04-19T10:21:47;29.70;28.50
9118;DHT22;4594;50.994;7.126;2023-04-19T10:24:15;29.70;28.70
9118;DHT22;4594;50.994;7.126;2023-04-19T10:27:08;29.70;28.70
9118;DHT22;4594;50.994;7.126;2023-04-19T10:30:00;29.70;28.20
9118;DHT22;4594;50.994;7.126;2023-04-19T10:32:38;29.70;28.00
9118;DHT22;4594;50.994;7.126;2023-04-19T10:35:09;29.70;28.40
9118;DHT22;4594;50.994;7.126;2023-04-19T10:40:56;29.80;27.60
9118;DHT22;4594;50.994;7.126;2023-04-19T10:43:27;29.80;28.10
9118;DHT22;4594;50.994;7.126;2023-04-19T10:46:02;29.70;28.10
9118;DHT22;4594;50.994;7.126;2023-04-19T10:48:57;29.70;28.10
9118;DHT22;4594;50.994;7.126;2023-04-19T10:51:26;29.70;28.10
9118;DHT22;4594;50.994;7.126;2023-04-19T11:01:34;29.40;27.30
9118;DHT22;4594;50.994;7.126;2023-04-19T11:04:05;29.20;27.10
9118;DHT22;4594;50.994;7.126;2023-04-19T11:06:32;28.90;27.20
9118;DHT22;4594;50.994;7.126;2023-04-19T11:08:59;28.70;27.20
9118;DHT22;4594;50.994;7.126;2023-04-19T11:11:25;28.40;27.30
9118;DHT22;4594;50.994;7.126;2023-04-19T11:13:53;28.20;26.80
9118;DHT22;4594;50.994;7.126;2023-04-19T11:16:20;27.90;26.80
9118;DHT22;4594;50.994;7.126;2023-04-19T11:18:46;27.60;26.80
9118;DHT22;4594;50.994;7.126;2023-04-19T11:21:13;27.40;26.50
9118;DHT22;4594;50.994;7.126;2023-04-19T11:23:42;27.20;26.60
9118;DHT22;4594;50.994;7.126;2023-04-19T11:26:10;27.00;26.30
9118;DHT22;4594;50.994;7.126;2023-04-19T11:28:37;26.80;26.00
9118;DHT22;4594;50.994;7.126;2023-04-19T11:31:04;26.40;26.20
9118;DHT22;4594;50.994;7.126;2023-04-19T11:33:34;26.20;26.00
9118;DHT22;4594;50.994;7.126;2023-04-19T11:36:01;26.00;26.00
9118;DHT22;4594;50.994;7.126;2023-04-19T11:38:27;25.70;26.20
9118;DHT22;4594;50.994;7.126;2023-04-19T11:41:00;25.50;26.10
9118;DHT22;4594;50.994;7.126;2023-04-19T11:43:34;25.20;26.00
9118;DHT22;4594;50.994;7.126;2023-04-19T11:46:11;24.90;25.80
9118;DHT22;4594;50.994;7.126;2023-04-19T11:48:38;24.60;25.60
9118;DHT22;4594;50.994;7.126;2023-04-19T11:51:14;24.20;25.40
9118;DHT22;4594;50.994;7.126;2023-04-19T11:53:40;23.80;25.30
9118;DHT22;4594;50.994;7.126;2023-04-19T11:56:07;23.50;25.30
9118;DHT22;4594;50.994;7.126;2023-04-19T11:58:44;23.10;25.50
9118;DHT22;4594;50.994;7.126;2023-04-19T12:01:15;22.80;24.80
9118;DHT22;4594;50.994;7.126;2023-04-19T12:06:24;22.10;24.60
9118;DHT22;4594;50.994;7.126;2023-04-19T12:08:53;21.80;24.40
9118;DHT22;4594;50.994;7.126;2023-04-19T12:11:22;21.40;24.40
9118;DHT22;4594;50.994;7.126;2023-04-19T12:14:08;21.20;24.30
9118;DHT22;4594;50.994;7.126;2023-04-19T12:16:35;20.90;24.30
9118;DHT22;4594;50.994;7.126;2023-04-19T12:19:10;20.60;24.30
9118;DHT22;4594;50.994;7.126;2023-04-19T12:21:39;20.40;24.20
9118;DHT22;4594;50.994;7.126;2023-04-19T12:24:05;20.20;24.20
9118;DHT22;4594;50.994;7.126;2023-04-19T12:26:32;19.90;24.10
9118;DHT22;4594;50.994;7.126;2023-04-19T12:28:59;19.70;24.10
9118;DHT22;4594;50.994;7.126;2023-04-19T12:31:26;19.50;24.10
9118;DHT22;4594;50.994;7.126;2023-04-19T12:33:52;19.30;24.00
9118;DHT22;4594;50.994;7.126;2023-04-19T12:36:18;19.10;24.10
9118;DHT22;4594;50.994;7.126;2023-04-19T12:38:44;19.00;24.10
9118;DHT22;4594;50.994;7.126;2023-04-19T12:41:10;18.80;24.00
9118;DHT22;4594;50.994;7.126;2023-04-19T12:43:36;18.80;24.10
9118;DHT22;4594;50.994;7.126;2023-04-19T12:46:01;18.60;24.00
9118;DHT22;4594;50.994;7.126;2023-04-19T12:48:27;18.50;24.00
9118;DHT22;4594;50.994;7.126;2023-04-19T12:50:53;18.50;24.10
9118;DHT22;4594;50.994;7.126;2023-04-19T12:53:19;18.30;23.90
9118;DHT22;4594;50.994;7.126;2023-04-19T12:55:47;18.30;23.90
9118;DHT22;4594;50.994;7.126;2023-04-19T12:58:14;18.20;23.90
9118;DHT22;4594;50.994;7.126;2023-04-19T13:00:42;18.10;23.80
9118;DHT22;4594;50.994;7.126;2023-04-19T13:03:08;18.10;23.80
9118;DHT22;4594;50.994;7.126;2023-04-19T13:05:33;18.10;23.90
9118;DHT22;4594;50.994;7.126;2023-04-19T13:07:59;18.00;23.80
9118;DHT22;4594;50.994;7.126;2023-04-19T13:10:25;18.00;23.90
9118;DHT22;4594;50.994;7.126;2023-04-19T13:12:51;17.90;23.80
9118;DHT22;4594;50.994;7.126;2023-04-19T13:15:17;17.90;23.80
9118;DHT22;4594;50.994;7.126;2023-04-19T13:17:42;17.90;23.80
9118;DHT22;4594;50.994;7.126;2023-04-19T13:20:09;17.90;23.70
9118;DHT22;4594;50.994;7.126;2023-04-19T13:22:35;17.90;23.60
9118;DHT22;4594;50.994;7.126;2023-04-19T13:25:01;17.90;23.70
9118;DHT22;4594;50.994;7.126;2023-04-19T13:27:26;17.90;23.70
9118;DHT22;4594;50.994;7.126;2023-04-19T13:29:55;18.00;23.80
9118;DHT22;4594;50.994;7.126;2023-04-19T13:32:21;17.90;23.70
9118;DHT22;4594;50.994;7.126;2023-04-19T13:34:47;17.90;23.70
9118;DHT22;4594;50.994;7.126;2023-04-19T13:37:13;17.90;23.60
9118;DHT22;4594;50.994;7.126;2023-04-19T13:39:39;17.90;23.60
9118;DHT22;4594;50.994;7.126;2023-04-19T13:42:05;17.90;23.50
9118;DHT22;4594;50.994;7.126;2023-04-19T13:44:31;17.80;23.50
9118;DHT22;4594;50.994;7.126;2023-04-19T13:46:58;17.80;23.50
9118;DHT22;4594;50.994;7.126;2023-04-19T13:49:24;17.70;23.40
9118;DHT22;4594;50.994;7.126;2023-04-19T13:51:50;17.80;23.70
9118;DHT22;4594;50.994;7.126;2023-04-19T13:54:17;17.70;23.50
9118;DHT22;4594;50.994;7.126;2023-04-19T13:56:43;17.60;23.40
9118;DHT22;4594;50.994;7.126;2023-04-19T13:59:09;17.50;23.40
9118;DHT22;4594;50.994;7.126;2023-04-19T14:01:35;17.50;23.30
9118;DHT22;4594;50.994;7.126;2023-04-19T14:04:01;17.50;23.20
9118;DHT22;4594;50.994;7.126;2023-04-19T14:06:27;17.50;23.30
9118;DHT22;4594;50.994;7.126;2023-04-19T14:08:53;17.40;23.00
9118;DHT22;4594;50.994;7.126;2023-04-19T14:11:19;17.40;23.10
9118;DHT22;4594;50.994;7.126;2023-04-19T14:13:45;17.30;23.20
9118;DHT22;4594;50.994;7.126;2023-04-19T14:16:12;17.20;23.30
9118;DHT22;4594;50.994;7.126;2023-04-19T14:18:39;17.30;23.30
9118;DHT22;4594;50.994;7.126;2023-04-19T14:21:04;17.30;23.30
9118;DHT22;4594;50.994;7.126;2023-04-19T14:23:31;17.30;23.30
9118;DHT22;4594;50.994;7.126;2023-04-19T14:25:57;17.30;23.30
9118;DHT22;4594;50.994;7.126;2023-04-19T14:28:23;17.30;23.30
9118;DHT22;4594;50.994;7.126;2023-04-19T14:30:49;17.20;23.20
9118;DHT22;4594;50.994;7.126;2023-04-19T14:33:15;17.20;23.30
9118;DHT22;4594;50.994;7.126;2023-04-19T14:35:41;17.20;23.30
9118;DHT22;4594;50.994;7.126;2023-04-19T14:38:07;17.20;23.10
9118;DHT22;4594;50.994;7.126;2023-04-19T14:40:32;17.20;23.10
9118;DHT22;4594;50.994;7.126;2023-04-19T14:42:58;17.20;23.20
9118;DHT22;4594;50.994;7.126;2023-04-19T14:45:24;17.10;23.20
9118;DHT22;4594;50.994;7.126;2023-04-19T14:47:52;17.10;23.10
9118;DHT22;4594;50.994;7.126;2023-04-19T14:50:17;17.00;23.00
9118;DHT22;4594;50.994;7.126;2023-04-19T14:52:43;17.10;23.10
9118;DHT22;4594;50.994;7.126;2023-04-19T14:55:10;17.00;23.10
9118;DHT22;4594;50.994;7.126;2023-04-19T14:57:36;17.00;23.10
9118;DHT22;4594;50.994;7.126;2023-04-19T15:00:02;17.10;23.20
9118;DHT22;4594;50.994;7.126;2023-04-19T15:02:28;17.00;23.10
9118;DHT22;4594;50.994;7.126;2023-04-19T15:04:53;16.90;23.10
9118;DHT22;4594;50.994;7.126;2023-04-19T15:07:19;17.00;23.40
9118;DHT22;4594;50.994;7.126;2023-04-19T15:09:45;17.00;23.20
9118;DHT22;4594;50.994;7.126;2023-04-19T15:12:11;17.00;23.20
9118;DHT22;4594;50.994;7.126;2023-04-19T15:14:37;17.00;23.20
9118;DHT22;4594;50.994;7.126;2023-04-19T15:17:04;16.90;23.00
9118;DHT22;4594;50.994;7.126;2023-04-19T15:19:30;16.90;23.00
9118;DHT22;4594;50.994;7.126;2023-04-19T15:21:56;16.80;23.00
9118;DHT22;4594;50.994;7.126;2023-04-19T15:24:21;16.80;23.10
9118;DHT22;4594;50.994;7.126;2023-04-19T15:26:47;16.80;23.10
9118;DHT22;4594;50.994;7.126;2023-04-19T15:29:13;16.70;23.00
9118;DHT22;4594;50.994;7.126;2023-04-19T15:31:39;16.80;23.10
9118;DHT22;4594;50.994;7.126;2023-04-19T15:34:04;16.70;23.00
9118;DHT22;4594;50.994;7.126;2023-04-19T15:36:30;16.70;23.00
9118;DHT22;4594;50.994;7.126;2023-04-19T15:38:59;16.70;23.10
9118;DHT22;4594;50.994;7.126;2023-04-19T15:41:25;16.70;23.10
9118;DHT22;4594;50.994;7.126;2023-04-19T15:43:51;16.70;23.10
9118;DHT22;4594;50.994;7.126;2023-04-19T15:46:17;16.70;23.10
9118;DHT22;4594;50.994;7.126;2023-04-19T15:48:43;16.70;23.10
9118;DHT22;4594;50.994;7.126;2023-04-19T15:51:13;16.70;23.10
9118;DHT22;4594;50.994;7.126;2023-04-19T15:53:40;16.60;22.90
9118;DHT22;4594;50.994;7.126;2023-04-19T15:56:06;16.60;23.00
9118;DHT22;4594;50.994;7.126;2023-04-19T15:58:32;16.60;23.00
9118;DHT22;4594;50.994;7.126;2023-04-19T16:00:58;16.50;22.80
9118;DHT22;4594;50.994;7.126;2023-04-19T16:03:24;16.50;22.90
9118;DHT22;4594;50.994;7.126;2023-04-19T16:05:49;16.50;22.90
9118;DHT22;4594;50.994;7.126;2023-04-19T16:08:16;16.50;23.00
9118;DHT22;4594;50.994;7.126;2023-04-19T16:10:47;16.40;23.00
9118;DHT22;4594;50.994;7.126;2023-04-19T16:13:14;16.40;23.00
9118;DHT22;4594;50.994;7.126;2023-04-19T16:15:41;16.40;23.10
9118;DHT22;4594;50.994;7.126;2023-04-19T16:18:08;16.40;23.10